Terminal Aerodrome Forecast
Issued by NWS Shreveport, LA

Current Version | Previous Version | Text Only | Print | Product List | Glossary On
Versions: 1 2 3 4 5 6 7 8 9 10 11 12 13 14 15 16
000
FTUS44 KSHV 230500 RRA
TAFSHV
TAF
KSHV 230542Z 2306/2406 19005KT P6SM SKC
      TEMPO 2311/2315 BKN011
     FM231500 23007KT P6SM FEW035
     FM240000 19004KT P6SM SKC=

USA.gov is the U.S. government's official web portal to all federal, state and local government web resources and services.